createdAt,value
2018-12-17T06:07:21.818Z,2.70
2018-12-17T06:09:57.869Z,2.70
2018-12-17T06:12:30.981Z,2.70
2018-12-17T06:15:04.889Z,2.80
2018-12-17T06:17:40.600Z,2.80
2018-12-17T06:20:13.771Z,2.80
2018-12-17T06:22:47.480Z,2.80
2018-12-17T06:25:25.284Z,2.80
2018-12-17T06:27:58.308Z,2.90
2018-12-17T06:30:32.234Z,2.90
2018-12-17T06:33:06.078Z,2.90
2018-12-17T06:35:39.475Z,2.90
2018-12-17T06:38:13.415Z,2.90
2018-12-17T06:40:46.980Z,2.80
2018-12-17T06:43:22.655Z,2.90
2018-12-17T06:45:56.233Z,2.90
2018-12-17T06:48:29.948Z,2.90
2018-12-17T06:51:03.074Z,2.90
2018-12-17T06:53:36.635Z,2.90
2018-12-17T06:56:20.721Z,2.90
2018-12-17T06:58:54.047Z,2.90
2018-12-17T07:01:28.231Z,2.90
2018-12-17T07:04:01.512Z,2.90
2018-12-17T07:06:35.216Z,2.90
2018-12-17T07:09:09.000Z,2.90
2018-12-17T07:11:43.030Z,3.00
2018-12-17T07:14:16.407Z,2.90
2018-12-17T07:16:54.473Z,2.90
2018-12-17T07:19:27.646Z,2.90
2018-12-17T07:22:01.417Z,2.90
2018-12-17T07:24:35.358Z,2.90
2018-12-17T07:27:08.908Z,2.90
2018-12-17T07:29:49.549Z,3.00
2018-12-17T07:32:24.944Z,3.00
2018-12-17T07:34:58.330Z,2.90
2018-12-17T07:37:34.288Z,2.90
2018-12-17T07:40:07.609Z,3.00
2018-12-17T07:42:41.560Z,3.00
2018-12-17T07:45:15.387Z,3.10
2018-12-17T07:47:47.138Z,3.10
2018-12-17T16:08:51.311Z,4.80
2018-12-17T16:11:35.078Z,4.80
2018-12-17T16:14:12.229Z,4.80
2018-12-17T16:16:46.056Z,4.80
2018-12-17T16:19:19.861Z,4.80
2018-12-17T16:21:52.504Z,4.80
2018-12-17T16:24:27.156Z,4.70
2018-12-17T16:27:01.681Z,4.70
2018-12-17T16:29:48.120Z,4.80
2018-12-17T16:32:32.841Z,4.80
2018-12-17T16:35:07.000Z,4.80
2018-12-17T16:37:42.128Z,4.80
2018-12-17T16:40:15.953Z,4.80
2018-12-17T16:42:54.223Z,4.70
2018-12-17T16:45:38.513Z,4.70
2018-12-17T16:48:14.563Z,4.70
2018-12-17T16:50:56.972Z,4.70
2018-12-17T16:53:38.064Z,4.70
2018-12-17T16:56:13.806Z,4.70
2018-12-17T16:58:53.942Z,4.70
2018-12-17T17:01:29.788Z,4.60
2018-12-17T17:04:05.942Z,4.70
2018-12-17T17:06:50.408Z,4.70
2018-12-17T17:09:40.157Z,4.70
2018-12-17T17:12:18.293Z,4.80
2018-12-17T17:14:52.919Z,4.80
2018-12-17T17:17:29.580Z,4.80
2018-12-17T17:20:04.182Z,4.80
2018-12-17T17:22:40.979Z,4.80
2018-12-17T17:28:21.904Z,4.80
2018-12-17T17:31:02.057Z,4.70
2018-12-17T17:33:46.288Z,4.80
2018-12-17T17:36:24.756Z,4.80
2018-12-17T17:38:59.178Z,4.80
2018-12-17T17:41:33.153Z,4.70
2018-12-17T17:44:09.718Z,4.70
2018-12-17T17:46:47.894Z,4.70
2018-12-17T17:52:24.396Z,4.70
2018-12-17T17:54:58.409Z,4.70
2018-12-17T17:57:52.046Z,4.60
2018-12-17T18:00:26.538Z,4.70
2018-12-17T18:03:03.866Z,4.70
2018-12-17T18:11:45.085Z,4.60
2018-12-17T18:14:23.808Z,4.60
2018-12-17T18:17:00.508Z,4.70
2018-12-17T18:19:40.625Z,4.60
2018-12-17T18:22:25.447Z,4.60
2018-12-17T18:25:03.366Z,4.60
2018-12-17T18:27:46.344Z,4.70
2018-12-17T18:30:31.213Z,4.60
2018-12-17T18:33:09.450Z,4.60
2018-12-17T18:35:45.787Z,4.60
2018-12-17T18:38:22.815Z,4.70
2018-12-17T18:40:57.613Z,4.70
2018-12-17T18:43:35.462Z,4.70
2018-12-17T18:46:16.856Z,4.70
2018-12-17T18:49:01.209Z,4.70
2018-12-17T18:51:45.944Z,4.70
2018-12-17T18:57:18.535Z,4.70
2018-12-17T18:59:54.815Z,4.60
2018-12-17T19:05:33.198Z,4.60
2018-12-17T19:08:13.783Z,4.60
2018-12-17T19:10:50.777Z,4.70
2018-12-17T19:13:25.846Z,4.70
2018-12-17T19:16:03.581Z,4.70
2018-12-17T19:21:51.577Z,4.70
2018-12-17T19:27:29.550Z,4.80
2018-12-17T19:30:07.819Z,4.90
2018-12-17T19:32:42.448Z,4.80
2018-12-17T19:35:20.945Z,4.80
2018-12-17T19:46:54.499Z,4.80
2018-12-17T19:49:29.947Z,4.80
2018-12-17T19:52:11.494Z,4.90
2018-12-17T19:54:48.607Z,4.90
2018-12-17T19:57:29.423Z,4.90
2018-12-17T20:00:02.907Z,4.90
2018-12-17T20:02:36.444Z,4.90
2018-12-17T20:05:29.856Z,4.90
2018-12-17T20:08:07.707Z,4.90
2018-12-17T20:10:50.490Z,4.90
2018-12-17T20:13:28.989Z,4.90
2018-12-17T20:16:03.283Z,4.90
2018-12-17T20:18:38.028Z,4.90
2018-12-17T20:21:13.243Z,4.90
2018-12-17T20:23:55.838Z,4.90
2018-12-17T20:26:35.791Z,4.90
2018-12-17T20:29:12.601Z,4.90
2018-12-17T20:31:46.283Z,4.90
2018-12-17T20:34:19.821Z,4.90
2018-12-17T20:36:53.375Z,4.90
2018-12-17T20:39:30.203Z,4.90
2018-12-17T20:42:08.103Z,4.90
2018-12-17T20:44:43.706Z,4.80
2018-12-17T20:47:17.631Z,4.80
2018-12-17T20:50:01.446Z,4.80
2018-12-17T20:52:34.862Z,4.80
2018-12-17T20:55:11.180Z,4.70
2018-12-17T20:57:44.089Z,4.70
2018-12-17T21:00:20.106Z,4.70
2018-12-17T21:03:00.287Z,4.60
2018-12-17T21:08:14.552Z,4.70
2018-12-17T21:10:48.486Z,4.60
2018-12-17T21:13:22.478Z,4.70
2018-12-17T21:15:55.987Z,4.60
2018-12-17T21:21:31.374Z,4.60
2018-12-17T21:24:03.398Z,4.50
2018-12-17T21:26:37.732Z,4.30
2018-12-17T21:29:13.158Z,4.40
2018-12-17T21:31:50.935Z,4.40
2018-12-17T21:34:30.143Z,4.30
2018-12-17T21:37:09.708Z,4.30
2018-12-17T21:39:45.178Z,4.30
2018-12-17T21:42:20.779Z,4.30
2018-12-17T21:44:58.086Z,4.20
2018-12-17T21:47:32.934Z,4.20
2018-12-17T21:50:21.084Z,4.20
2018-12-17T21:55:55.752Z,4.20
2018-12-17T21:58:31.372Z,4.10
2018-12-17T22:01:17.897Z,4.10
2018-12-17T22:03:51.819Z,4.20
2018-12-17T22:06:25.438Z,4.20
2018-12-17T22:08:58.943Z,4.20
2018-12-17T22:11:33.914Z,4.20
2018-12-17T22:14:07.695Z,4.20
2018-12-17T22:16:45.617Z,4.30
2018-12-17T22:19:21.686Z,4.20
2018-12-17T22:22:00.371Z,4.20
2018-12-17T22:24:34.357Z,4.30
2018-12-17T22:27:08.054Z,4.30
2018-12-17T22:29:43.783Z,4.30
